sensor_id;sensor_type;location;lat;lon;timestamp;P1;durP1;ratioP1;P2;durP2;ratioP2
78744;SDS011;68064;53.100;8.824;2023-05-13T00:00:42;10.07;;;2.20;;
78744;SDS011;68064;53.100;8.824;2023-05-13T00:01:43;7.63;;;1.80;;
78744;SDS011;68064;53.100;8.824;2023-05-13T00:02:44;8.45;;;2.50;;
78744;SDS011;68064;53.100;8.824;2023-05-13T00:03:45;7.60;;;1.95;;
78744;SDS011;68064;53.100;8.824;2023-05-13T00:04:47;7.25;;;2.13;;
78744;SDS011;68064;53.100;8.824;2023-05-13T00:05:48;7.72;;;1.88;;
78744;SDS011;68064;53.100;8.824;2023-05-13T00:06:49;8.57;;;1.45;;
78744;SDS011;68064;53.100;8.824;2023-05-13T00:07:50;6.40;;;1.50;;
78744;SDS011;68064;53.100;8.824;2023-05-13T00:08:51;8.13;;;2.00;;
78744;SDS011;68064;53.100;8.824;2023-05-13T00:09:52;8.07;;;1.85;;
78744;SDS011;68064;53.100;8.824;2023-05-13T00:10:53;8.38;;;2.00;;
78744;SDS011;68064;53.100;8.824;2023-05-13T00:11:54;7.80;;;1.80;;
78744;SDS011;68064;53.100;8.824;2023-05-13T00:13:56;9.30;;;1.85;;
78744;SDS011;68064;53.100;8.824;2023-05-13T00:14:59;6.72;;;1.80;;
78744;SDS011;68064;53.100;8.824;2023-05-13T00:16:00;7.60;;;2.03;;
78744;SDS011;68064;53.100;8.824;2023-05-13T00:17:01;7.38;;;2.05;;
78744;SDS011;68064;53.100;8.824;2023-05-13T00:19:03;11.65;;;2.25;;
78744;SDS011;68064;53.100;8.824;2023-05-13T00:20:05;7.03;;;1.83;;
78744;SDS011;68064;53.100;8.824;2023-05-13T00:21:10;7.07;;;2.00;;
78744;SDS011;68064;53.100;8.824;2023-05-13T00:22:11;7.68;;;1.83;;
78744;SDS011;68064;53.100;8.824;2023-05-13T00:23:12;6.38;;;1.80;;
78744;SDS011;68064;53.100;8.824;2023-05-13T00:24:13;6.25;;;1.77;;
78744;SDS011;68064;53.100;8.824;2023-05-13T00:26:15;8.15;;;2.03;;
78744;SDS011;68064;53.100;8.824;2023-05-13T00:27:16;7.93;;;2.00;;
78744;SDS011;68064;53.100;8.824;2023-05-13T00:28:17;7.43;;;1.70;;
78744;SDS011;68064;53.100;8.824;2023-05-13T00:29:18;8.02;;;1.33;;
78744;SDS011;68064;53.100;8.824;2023-05-13T00:31:22;7.85;;;1.95;;
78744;SDS011;68064;53.100;8.824;2023-05-13T00:32:23;8.05;;;2.00;;
78744;SDS011;68064;53.100;8.824;2023-05-13T00:33:24;8.25;;;2.17;;
78744;SDS011;68064;53.100;8.824;2023-05-13T00:34:25;6.65;;;1.80;;
78744;SDS011;68064;53.100;8.824;2023-05-13T00:35:26;7.95;;;1.90;;
78744;SDS011;68064;53.100;8.824;2023-05-13T00:36:27;7.60;;;1.63;;
78744;SDS011;68064;53.100;8.824;2023-05-13T00:37:28;8.15;;;2.40;;
78744;SDS011;68064;53.100;8.824;2023-05-13T00:38:30;7.78;;;1.33;;
78744;SDS011;68064;53.100;8.824;2023-05-13T00:40:32;10.20;;;2.13;;
78744;SDS011;68064;53.100;8.824;2023-05-13T00:41:36;7.43;;;2.15;;
78744;SDS011;68064;53.100;8.824;2023-05-13T00:42:37;9.73;;;2.72;;
78744;SDS011;68064;53.100;8.824;2023-05-13T00:43:38;10.02;;;3.28;;
78744;SDS011;68064;53.100;8.824;2023-05-13T00:44:39;6.50;;;1.88;;
78744;SDS011;68064;53.100;8.824;2023-05-13T00:45:42;7.30;;;2.20;;
78744;SDS011;68064;53.100;8.824;2023-05-13T00:46:43;7.80;;;2.22;;
78744;SDS011;68064;53.100;8.824;2023-05-13T00:48:45;6.50;;;1.30;;
78744;SDS011;68064;53.100;8.824;2023-05-13T00:49:46;7.63;;;2.10;;
78744;SDS011;68064;53.100;8.824;2023-05-13T00:51:49;7.15;;;1.63;;
78744;SDS011;68064;53.100;8.824;2023-05-13T00:53:51;7.90;;;1.60;;
78744;SDS011;68064;53.100;8.824;2023-05-13T00:54:52;7.13;;;2.17;;
78744;SDS011;68064;53.100;8.824;2023-05-13T00:55:53;7.03;;;2.05;;
78744;SDS011;68064;53.100;8.824;2023-05-13T00:56:55;8.85;;;2.00;;
78744;SDS011;68064;53.100;8.824;2023-05-13T00:57:56;7.22;;;1.85;;
78744;SDS011;68064;53.100;8.824;2023-05-13T00:58:57;7.38;;;1.95;;
78744;SDS011;68064;53.100;8.824;2023-05-13T00:59:58;8.40;;;2.03;;
78744;SDS011;68064;53.100;8.824;2023-05-13T01:01:04;6.47;;;1.70;;
78744;SDS011;68064;53.100;8.824;2023-05-13T01:02:13;7.40;;;2.03;;
78744;SDS011;68064;53.100;8.824;2023-05-13T01:03:20;8.80;;;2.08;;
78744;SDS011;68064;53.100;8.824;2023-05-13T01:04:30;8.20;;;2.33;;
78744;SDS011;68064;53.100;8.824;2023-05-13T01:05:37;6.97;;;2.17;;
78744;SDS011;68064;53.100;8.824;2023-05-13T01:06:49;5.80;;;1.40;;
78744;SDS011;68064;53.100;8.824;2023-05-13T01:07:57;8.80;;;2.08;;
78744;SDS011;68064;53.100;8.824;2023-05-13T01:09:05;7.32;;;2.15;;
78744;SDS011;68064;53.100;8.824;2023-05-13T01:10:14;7.80;;;2.40;;
78744;SDS011;68064;53.100;8.824;2023-05-13T01:11:28;6.75;;;2.05;;
78744;SDS011;68064;53.100;8.824;2023-05-13T01:12:40;8.35;;;1.92;;
78744;SDS011;68064;53.100;8.824;2023-05-13T01:13:45;7.43;;;1.80;;
78744;SDS011;68064;53.100;8.824;2023-05-13T01:14:48;8.75;;;2.35;;
78744;SDS011;68064;53.100;8.824;2023-05-13T01:15:55;6.95;;;1.85;;
78744;SDS011;68064;53.100;8.824;2023-05-13T01:17:04;7.97;;;2.20;;
78744;SDS011;68064;53.100;8.824;2023-05-13T01:18:11;7.72;;;1.98;;
78744;SDS011;68064;53.100;8.824;2023-05-13T01:19:20;7.65;;;1.90;;
78744;SDS011;68064;53.100;8.824;2023-05-13T01:20:32;7.35;;;2.10;;
78744;SDS011;68064;53.100;8.824;2023-05-13T01:21:36;7.68;;;1.95;;
78744;SDS011;68064;53.100;8.824;2023-05-13T01:22:38;8.30;;;1.92;;
78744;SDS011;68064;53.100;8.824;2023-05-13T01:23:39;9.40;;;2.38;;
78744;SDS011;68064;53.100;8.824;2023-05-13T01:24:40;7.13;;;2.05;;
78744;SDS011;68064;53.100;8.824;2023-05-13T01:25:41;7.53;;;2.15;;
78744;SDS011;68064;53.100;8.824;2023-05-13T01:26:42;9.07;;;1.73;;
78744;SDS011;68064;53.100;8.824;2023-05-13T01:28:44;6.95;;;1.55;;
78744;SDS011;68064;53.100;8.824;2023-05-13T01:29:46;8.82;;;1.88;;
78744;SDS011;68064;53.100;8.824;2023-05-13T01:30:47;6.57;;;1.48;;
78744;SDS011;68064;53.100;8.824;2023-05-13T01:32:50;6.60;;;1.63;;
78744;SDS011;68064;53.100;8.824;2023-05-13T01:33:52;7.32;;;2.20;;
78744;SDS011;68064;53.100;8.824;2023-05-13T01:34:54;6.45;;;1.48;;
78744;SDS011;68064;53.100;8.824;2023-05-13T01:35:56;7.25;;;1.83;;
78744;SDS011;68064;53.100;8.824;2023-05-13T01:36:59;8.48;;;2.00;;
78744;SDS011;68064;53.100;8.824;2023-05-13T01:38:00;6.60;;;1.65;;
78744;SDS011;68064;53.100;8.824;2023-05-13T01:39:03;8.00;;;2.30;;
78744;SDS011;68064;53.100;8.824;2023-05-13T01:40:05;7.95;;;2.10;;
78744;SDS011;68064;53.100;8.824;2023-05-13T01:41:07;7.95;;;2.10;;
78744;SDS011;68064;53.100;8.824;2023-05-13T01:42:08;7.90;;;2.28;;
78744;SDS011;68064;53.100;8.824;2023-05-13T01:43:09;6.15;;;1.90;;
78744;SDS011;68064;53.100;8.824;2023-05-13T01:44:10;6.88;;;1.55;;
78744;SDS011;68064;53.100;8.824;2023-05-13T01:45:12;7.43;;;1.75;;
78744;SDS011;68064;53.100;8.824;2023-05-13T01:46:14;7.43;;;1.88;;
78744;SDS011;68064;53.100;8.824;2023-05-13T01:47:15;7.68;;;1.73;;
78744;SDS011;68064;53.100;8.824;2023-05-13T01:48:16;9.50;;;2.65;;
78744;SDS011;68064;53.100;8.824;2023-05-13T01:49:17;9.48;;;2.40;;
78744;SDS011;68064;53.100;8.824;2023-05-13T01:50:18;7.40;;;2.55;;
78744;SDS011;68064;53.100;8.824;2023-05-13T01:52:22;8.25;;;1.98;;
78744;SDS011;68064;53.100;8.824;2023-05-13T01:53:23;7.20;;;1.98;;
78744;SDS011;68064;53.100;8.824;2023-05-13T01:54:24;8.75;;;2.17;;
78744;SDS011;68064;53.100;8.824;2023-05-13T01:55:25;7.38;;;1.92;;
78744;SDS011;68064;53.100;8.824;2023-05-13T01:56:26;8.30;;;2.55;;
78744;SDS011;68064;53.100;8.824;2023-05-13T01:57:27;8.43;;;2.20;;
78744;SDS011;68064;53.100;8.824;2023-05-13T01:58:28;7.30;;;1.98;;
78744;SDS011;68064;53.100;8.824;2023-05-13T01:59:29;7.47;;;1.92;;
78744;SDS011;68064;53.100;8.824;2023-05-13T02:00:30;6.38;;;1.85;;
78744;SDS011;68064;53.100;8.824;2023-05-13T02:01:31;9.82;;;2.30;;
78744;SDS011;68064;53.100;8.824;2023-05-13T02:02:32;7.45;;;1.90;;
78744;SDS011;68064;53.100;8.824;2023-05-13T02:03:34;8.30;;;2.15;;
78744;SDS011;68064;53.100;8.824;2023-05-13T02:04:36;7.82;;;2.17;;
78744;SDS011;68064;53.100;8.824;2023-05-13T02:06:38;8.13;;;2.13;;
78744;SDS011;68064;53.100;8.824;2023-05-13T02:07:41;6.45;;;1.58;;
78744;SDS011;68064;53.100;8.824;2023-05-13T02:08:42;7.30;;;2.50;;
78744;SDS011;68064;53.100;8.824;2023-05-13T02:09:43;7.07;;;1.80;;
78744;SDS011;68064;53.100;8.824;2023-05-13T02:10:44;8.20;;;2.50;;
78744;SDS011;68064;53.100;8.824;2023-05-13T02:11:45;6.95;;;1.88;;
78744;SDS011;68064;53.100;8.824;2023-05-13T02:12:46;7.95;;;2.08;;
78744;SDS011;68064;53.100;8.824;2023-05-13T02:13:47;7.15;;;2.17;;
78744;SDS011;68064;53.100;8.824;2023-05-13T02:14:48;8.30;;;2.20;;
78744;SDS011;68064;53.100;8.824;2023-05-13T02:15:49;7.40;;;1.95;;
78744;SDS011;68064;53.100;8.824;2023-05-13T02:16:50;7.45;;;2.17;;
78744;SDS011;68064;53.100;8.824;2023-05-13T02:17:51;8.68;;;2.85;;
78744;SDS011;68064;53.100;8.824;2023-05-13T02:18:52;9.18;;;2.17;;
78744;SDS011;68064;53.100;8.824;2023-05-13T02:19:53;9.05;;;2.67;;
78744;SDS011;68064;53.100;8.824;2023-05-13T02:20:54;8.00;;;3.15;;
78744;SDS011;68064;53.100;8.824;2023-05-13T02:21:55;9.35;;;2.60;;
78744;SDS011;68064;53.100;8.824;2023-05-13T02:22:58;7.93;;;2.58;;
78744;SDS011;68064;53.100;8.824;2023-05-13T02:23:59;10.35;;;3.58;;
78744;SDS011;68064;53.100;8.824;2023-05-13T02:25:01;9.15;;;2.75;;
78744;SDS011;68064;53.100;8.824;2023-05-13T02:26:02;6.97;;;2.20;;
78744;SDS011;68064;53.100;8.824;2023-05-13T02:27:04;9.00;;;2.85;;
78744;SDS011;68064;53.100;8.824;2023-05-13T02:28:05;7.57;;;2.05;;
78744;SDS011;68064;53.100;8.824;2023-05-13T02:29:06;8.68;;;2.03;;
78744;SDS011;68064;53.100;8.824;2023-05-13T02:30:08;7.13;;;1.90;;
78744;SDS011;68064;53.100;8.824;2023-05-13T02:31:09;8.25;;;2.85;;
78744;SDS011;68064;53.100;8.824;2023-05-13T02:32:10;7.85;;;2.50;;
78744;SDS011;68064;53.100;8.824;2023-05-13T02:33:11;9.45;;;2.53;;
78744;SDS011;68064;53.100;8.824;2023-05-13T02:34:12;8.70;;;2.67;;
78744;SDS011;68064;53.100;8.824;2023-05-13T02:35:14;9.02;;;2.30;;
78744;SDS011;68064;53.100;8.824;2023-05-13T02:37:15;10.23;;;2.70;;
78744;SDS011;68064;53.100;8.824;2023-05-13T02:38:18;8.13;;;2.20;;
78744;SDS011;68064;53.100;8.824;2023-05-13T02:39:19;7.45;;;2.33;;
78744;SDS011;68064;53.100;8.824;2023-05-13T02:40:20;9.40;;;2.53;;
78744;SDS011;68064;53.100;8.824;2023-05-13T02:41:21;8.00;;;2.75;;
78744;SDS011;68064;53.100;8.824;2023-05-13T02:42:22;7.38;;;2.42;;
78744;SDS011;68064;53.100;8.824;2023-05-13T02:43:23;8.50;;;2.08;;
78744;SDS011;68064;53.100;8.824;2023-05-13T02:44:24;8.23;;;2.95;;
78744;SDS011;68064;53.100;8.824;2023-05-13T02:45:25;9.75;;;2.67;;
78744;SDS011;68064;53.100;8.824;2023-05-13T02:46:26;8.15;;;2.10;;
78744;SDS011;68064;53.100;8.824;2023-05-13T02:47:28;8.90;;;2.83;;
78744;SDS011;68064;53.100;8.824;2023-05-13T02:48:29;8.55;;;2.40;;
78744;SDS011;68064;53.100;8.824;2023-05-13T02:49:30;8.85;;;2.95;;
78744;SDS011;68064;53.100;8.824;2023-05-13T02:50:31;7.90;;;2.47;;
78744;SDS011;68064;53.100;8.824;2023-05-13T02:52:33;7.88;;;2.70;;
78744;SDS011;68064;53.100;8.824;2023-05-13T02:53:35;8.95;;;3.15;;
78744;SDS011;68064;53.100;8.824;2023-05-13T02:54:36;8.45;;;2.47;;
78744;SDS011;68064;53.100;8.824;2023-05-13T02:56:38;8.60;;;2.33;;
78744;SDS011;68064;53.100;8.824;2023-05-13T02:57:39;7.60;;;2.40;;
78744;SDS011;68064;53.100;8.824;2023-05-13T02:58:41;8.60;;;2.78;;
78744;SDS011;68064;53.100;8.824;2023-05-13T02:59:42;7.05;;;2.25;;
78744;SDS011;68064;53.100;8.824;2023-05-13T03:00:43;8.30;;;2.78;;
78744;SDS011;68064;53.100;8.824;2023-05-13T03:01:45;9.80;;;2.97;;
78744;SDS011;68064;53.100;8.824;2023-05-13T03:03:46;8.15;;;2.33;;
78744;SDS011;68064;53.100;8.824;2023-05-13T03:04:48;7.68;;;2.17;;
78744;SDS011;68064;53.100;8.824;2023-05-13T03:05:49;7.15;;;1.83;;
78744;SDS011;68064;53.100;8.824;2023-05-13T03:06:50;9.10;;;2.13;;
78744;SDS011;68064;53.100;8.824;2023-05-13T03:07:51;7.97;;;2.55;;
78744;SDS011;68064;53.100;8.824;2023-05-13T03:08:53;9.27;;;2.80;;
78744;SDS011;68064;53.100;8.824;2023-05-13T03:09:54;7.50;;;2.03;;
78744;SDS011;68064;53.100;8.824;2023-05-13T03:10:56;8.10;;;2.50;;
78744;SDS011;68064;53.100;8.824;2023-05-13T03:11:57;7.57;;;2.17;;
78744;SDS011;68064;53.100;8.824;2023-05-13T03:12:58;8.60;;;2.42;;
78744;SDS011;68064;53.100;8.824;2023-05-13T03:13:59;8.65;;;2.47;;
78744;SDS011;68064;53.100;8.824;2023-05-13T03:15:00;9.00;;;2.97;;
78744;SDS011;68064;53.100;8.824;2023-05-13T03:16:02;8.23;;;3.38;;
78744;SDS011;68064;53.100;8.824;2023-05-13T03:17:03;9.20;;;2.40;;
78744;SDS011;68064;53.100;8.824;2023-05-13T03:18:05;9.98;;;2.75;;
78744;SDS011;68064;53.100;8.824;2023-05-13T03:19:06;9.88;;;2.58;;
78744;SDS011;68064;53.100;8.824;2023-05-13T03:20:07;7.88;;;2.38;;
78744;SDS011;68064;53.100;8.824;2023-05-13T03:21:09;8.00;;;2.78;;
78744;SDS011;68064;53.100;8.824;2023-05-13T03:22:10;9.45;;;2.53;;
78744;SDS011;68064;53.100;8.824;2023-05-13T03:23:11;7.22;;;2.47;;
78744;SDS011;68064;53.100;8.824;2023-05-13T03:24:14;8.07;;;2.33;;
78744;SDS011;68064;53.100;8.824;2023-05-13T03:25:15;8.80;;;2.95;;
78744;SDS011;68064;53.100;8.824;2023-05-13T03:26:16;7.75;;;2.70;;
78744;SDS011;68064;53.100;8.824;2023-05-13T03:28:18;8.77;;;2.65;;
78744;SDS011;68064;53.100;8.824;2023-05-13T03:29:19;8.65;;;2.50;;
78744;SDS011;68064;53.100;8.824;2023-05-13T03:30:20;9.40;;;2.55;;
78744;SDS011;68064;53.100;8.824;2023-05-13T03:31:21;8.30;;;2.58;;
78744;SDS011;68064;53.100;8.824;2023-05-13T03:32:22;9.32;;;2.33;;
78744;SDS011;68064;53.100;8.824;2023-05-13T03:34:24;8.85;;;2.75;;
78744;SDS011;68064;53.100;8.824;2023-05-13T03:35:25;7.95;;;2.63;;
78744;SDS011;68064;53.100;8.824;2023-05-13T03:36:26;9.27;;;2.78;;
78744;SDS011;68064;53.100;8.824;2023-05-13T03:37:27;8.27;;;2.90;;
78744;SDS011;68064;53.100;8.824;2023-05-13T03:39:31;8.40;;;1.75;;
78744;SDS011;68064;53.100;8.824;2023-05-13T03:40:32;8.55;;;2.67;;
78744;SDS011;68064;53.100;8.824;2023-05-13T03:41:33;7.72;;;2.53;;
78744;SDS011;68064;53.100;8.824;2023-05-13T03:42:34;9.40;;;3.08;;
78744;SDS011;68064;53.100;8.824;2023-05-13T03:43:35;8.63;;;2.63;;
78744;SDS011;68064;53.100;8.824;2023-05-13T03:44:37;8.05;;;2.13;;
78744;SDS011;68064;53.100;8.824;2023-05-13T03:45:38;7.30;;;2.45;;
78744;SDS011;68064;53.100;8.824;2023-05-13T03:46:39;8.85;;;2.83;;
78744;SDS011;68064;53.100;8.824;2023-05-13T03:47:40;8.35;;;3.05;;
78744;SDS011;68064;53.100;8.824;2023-05-13T03:48:41;9.38;;;1.95;;
78744;SDS011;68064;53.100;8.824;2023-05-13T03:49:44;7.00;;;1.92;;
78744;SDS011;68064;53.100;8.824;2023-05-13T03:50:45;8.18;;;2.47;;
78744;SDS011;68064;53.100;8.824;2023-05-13T03:51:46;8.45;;;2.95;;
78744;SDS011;68064;53.100;8.824;2023-05-13T03:52:47;10.55;;;2.53;;
78744;SDS011;68064;53.100;8.824;2023-05-13T03:53:48;8.27;;;2.13;;
78744;SDS011;68064;53.100;8.824;2023-05-13T03:54:50;9.23;;;2.58;;
78744;SDS011;68064;53.100;8.824;2023-05-13T03:55:52;8.30;;;2.63;;
78744;SDS011;68064;53.100;8.824;2023-05-13T03:56:53;7.78;;;2.35;;
78744;SDS011;68064;53.100;8.824;2023-05-13T03:57:54;8.98;;;2.50;;
78744;SDS011;68064;53.100;8.824;2023-05-13T03:58:55;9.20;;;3.20;;
78744;SDS011;68064;53.100;8.824;2023-05-13T03:59:56;7.65;;;1.88;;
78744;SDS011;68064;53.100;8.824;2023-05-13T04:00:57;7.28;;;2.35;;
78744;SDS011;68064;53.100;8.824;2023-05-13T04:01:58;8.88;;;2.90;;
78744;SDS011;68064;53.100;8.824;2023-05-13T04:04:00;6.63;;;2.28;;
78744;SDS011;68064;53.100;8.824;2023-05-13T04:05:01;8.73;;;2.40;;
78744;SDS011;68064;53.100;8.824;2023-05-13T04:06:02;8.23;;;2.53;;
78744;SDS011;68064;53.100;8.824;2023-05-13T04:07:04;9.43;;;2.92;;
78744;SDS011;68064;53.100;8.824;2023-05-13T04:09:05;9.30;;;2.58;;
78744;SDS011;68064;53.100;8.824;2023-05-13T04:10:08;9.43;;;2.60;;
78744;SDS011;68064;53.100;8.824;2023-05-13T04:11:10;7.57;;;2.20;;
78744;SDS011;68064;53.100;8.824;2023-05-13T04:12:11;9.43;;;2.00;;
78744;SDS011;68064;53.100;8.824;2023-05-13T04:13:12;7.72;;;2.63;;
78744;SDS011;68064;53.100;8.824;2023-05-13T04:14:13;8.00;;;2.33;;
78744;SDS011;68064;53.100;8.824;2023-05-13T04:15:14;8.35;;;2.20;;
78744;SDS011;68064;53.100;8.824;2023-05-13T04:16:15;9.52;;;2.67;;
78744;SDS011;68064;53.100;8.824;2023-05-13T04:17:16;8.30;;;2.33;;
78744;SDS011;68064;53.100;8.824;2023-05-13T04:18:17;8.15;;;1.95;;
78744;SDS011;68064;53.100;8.824;2023-05-13T04:19:19;7.78;;;2.08;;
78744;SDS011;68064;53.100;8.824;2023-05-13T04:20:20;8.45;;;2.92;;
78744;SDS011;68064;53.100;8.824;2023-05-13T04:21:21;8.65;;;2.50;;
78744;SDS011;68064;53.100;8.824;2023-05-13T04:22:23;10.57;;;5.20;;
78744;SDS011;68064;53.100;8.824;2023-05-13T04:23:24;9.32;;;3.22;;
78744;SDS011;68064;53.100;8.824;2023-05-13T04:24:25;8.35;;;2.50;;
78744;SDS011;68064;53.100;8.824;2023-05-13T04:25:27;10.27;;;4.10;;
78744;SDS011;68064;53.100;8.824;2023-05-13T04:26:29;7.72;;;2.17;;
78744;SDS011;68064;53.100;8.824;2023-05-13T04:27:30;9.35;;;4.10;;
78744;SDS011;68064;53.100;8.824;2023-05-13T04:28:31;9.68;;;2.50;;
78744;SDS011;68064;53.100;8.824;2023-05-13T04:29:32;8.23;;;1.90;;
78744;SDS011;68064;53.100;8.824;2023-05-13T04:30:33;7.82;;;2.25;;
78744;SDS011;68064;53.100;8.824;2023-05-13T04:32:35;9.05;;;2.35;;
78744;SDS011;68064;53.100;8.824;2023-05-13T04:33:36;9.00;;;3.10;;
78744;SDS011;68064;53.100;8.824;2023-05-13T04:34:37;7.78;;;2.08;;
78744;SDS011;68064;53.100;8.824;2023-05-13T04:35:38;8.85;;;2.83;;
78744;SDS011;68064;53.100;8.824;2023-05-13T04:36:39;8.13;;;2.42;;
78744;SDS011;68064;53.100;8.824;2023-05-13T04:37:40;6.88;;;1.83;;
78744;SDS011;68064;53.100;8.824;2023-05-13T04:38:41;9.55;;;2.92;;
78744;SDS011;68064;53.100;8.824;2023-05-13T04:39:44;6.90;;;1.98;;
78744;SDS011;68064;53.100;8.824;2023-05-13T04:40:46;11.18;;;4.65;;
78744;SDS011;68064;53.100;8.824;2023-05-13T04:41:48;8.63;;;2.70;;
78744;SDS011;68064;53.100;8.824;2023-05-13T04:42:49;9.57;;;4.05;;
78744;SDS011;68064;53.100;8.824;2023-05-13T04:43:50;12.20;;;4.38;;
78744;SDS011;68064;53.100;8.824;2023-05-13T04:44:51;11.07;;;4.18;;
78744;SDS011;68064;53.100;8.824;2023-05-13T04:45:52;7.60;;;1.77;;
78744;SDS011;68064;53.100;8.824;2023-05-13T04:47:54;7.38;;;1.80;;
78744;SDS011;68064;53.100;8.824;2023-05-13T04:48:55;12.10;;;4.93;;
78744;SDS011;68064;53.100;8.824;2023-05-13T04:49:56;11.23;;;3.00;;
78744;SDS011;68064;53.100;8.824;2023-05-13T04:50:59;8.50;;;2.55;;
78744;SDS011;68064;53.100;8.824;2023-05-13T04:52:00;8.13;;;2.28;;
78744;SDS011;68064;53.100;8.824;2023-05-13T04:53:01;7.53;;;2.08;;
78744;SDS011;68064;53.100;8.824;2023-05-13T04:54:02;8.38;;;2.95;;
78744;SDS011;68064;53.100;8.824;2023-05-13T04:56:06;9.82;;;3.05;;
78744;SDS011;68064;53.100;8.824;2023-05-13T04:57:08;8.18;;;2.33;;
78744;SDS011;68064;53.100;8.824;2023-05-13T04:58:09;7.55;;;1.73;;
78744;SDS011;68064;53.100;8.824;2023-05-13T04:59:10;7.68;;;1.95;;
78744;SDS011;68064;53.100;8.824;2023-05-13T05:00:11;12.20;;;4.10;;
78744;SDS011;68064;53.100;8.824;2023-05-13T05:01:13;7.22;;;2.30;;
78744;SDS011;68064;53.100;8.824;2023-05-13T05:02:14;8.85;;;2.78;;
78744;SDS011;68064;53.100;8.824;2023-05-13T05:03:15;7.30;;;1.95;;
78744;SDS011;68064;53.100;8.824;2023-05-13T05:04:17;11.35;;;3.03;;
78744;SDS011;68064;53.100;8.824;2023-05-13T05:05:18;9.02;;;2.92;;
78744;SDS011;68064;53.100;8.824;2023-05-13T05:07:20;8.73;;;2.92;;
78744;SDS011;68064;53.100;8.824;2023-05-13T05:08:21;8.40;;;2.50;;
78744;SDS011;68064;53.100;8.824;2023-05-13T05:09:22;6.47;;;1.58;;
78744;SDS011;68064;53.100;8.824;2023-05-13T05:10:23;11.48;;;4.57;;
78744;SDS011;68064;53.100;8.824;2023-05-13T05:11:25;12.57;;;4.70;;
78744;SDS011;68064;53.100;8.824;2023-05-13T05:12:26;8.40;;;2.83;;
78744;SDS011;68064;53.100;8.824;2023-05-13T05:13:27;7.20;;;1.95;;
78744;SDS011;68064;53.100;8.824;2023-05-13T05:14:28;12.77;;;3.65;;
78744;SDS011;68064;53.100;8.824;2023-05-13T05:15:29;11.65;;;4.25;;
78744;SDS011;68064;53.100;8.824;2023-05-13T05:16:31;10.95;;;4.82;;
78744;SDS011;68064;53.100;8.824;2023-05-13T05:17:32;10.50;;;3.22;;
78744;SDS011;68064;53.100;8.824;2023-05-13T05:18:33;11.70;;;4.40;;
78744;SDS011;68064;53.100;8.824;2023-05-13T05:19:34;8.90;;;2.80;;
78744;SDS011;68064;53.100;8.824;2023-05-13T05:20:36;15.13;;;4.80;;
78744;SDS011;68064;53.100;8.824;2023-05-13T05:21:37;12.13;;;4.57;;
78744;SDS011;68064;53.100;8.824;2023-05-13T05:23:39;11.35;;;3.85;;
78744;SDS011;68064;53.100;8.824;2023-05-13T05:24:41;11.35;;;5.25;;
78744;SDS011;68064;53.100;8.824;2023-05-13T05:25:42;12.45;;;5.50;;
78744;SDS011;68064;53.100;8.824;2023-05-13T05:26:44;12.57;;;5.10;;
78744;SDS011;68064;53.100;8.824;2023-05-13T05:27:45;10.10;;;4.05;;
78744;SDS011;68064;53.100;8.824;2023-05-13T05:28:46;8.65;;;2.40;;
78744;SDS011;68064;53.100;8.824;2023-05-13T05:29:47;12.38;;;4.60;;
78744;SDS011;68064;53.100;8.824;2023-05-13T05:30:48;10.50;;;3.72;;
78744;SDS011;68064;53.100;8.824;2023-05-13T05:32:50;10.80;;;4.03;;
78744;SDS011;68064;53.100;8.824;2023-05-13T05:33:52;13.82;;;4.28;;
78744;SDS011;68064;53.100;8.824;2023-05-13T05:34:53;10.98;;;4.45;;
78744;SDS011;68064;53.100;8.824;2023-05-13T05:35:54;12.23;;;4.97;;
78744;SDS011;68064;53.100;8.824;2023-05-13T05:36:55;10.85;;;4.70;;
78744;SDS011;68064;53.100;8.824;2023-05-13T05:37:56;13.63;;;5.85;;
78744;SDS011;68064;53.100;8.824;2023-05-13T05:38:57;12.23;;;4.00;;
78744;SDS011;68064;53.100;8.824;2023-05-13T05:39:58;11.30;;;3.88;;
78744;SDS011;68064;53.100;8.824;2023-05-13T05:40:59;12.20;;;4.50;;
78744;SDS011;68064;53.100;8.824;2023-05-13T05:42:02;12.65;;;4.82;;
78744;SDS011;68064;53.100;8.824;2023-05-13T05:43:03;12.10;;;4.85;;
78744;SDS011;68064;53.100;8.824;2023-05-13T05:44:04;7.18;;;2.20;;
78744;SDS011;68064;53.100;8.824;2023-05-13T05:45:05;11.70;;;4.82;;
78744;SDS011;68064;53.100;8.824;2023-05-13T05:46:07;11.30;;;4.63;;
78744;SDS011;68064;53.100;8.824;2023-05-13T05:48:09;11.45;;;4.07;;
78744;SDS011;68064;53.100;8.824;2023-05-13T05:49:10;11.63;;;5.13;;
78744;SDS011;68064;53.100;8.824;2023-05-13T05:50:11;11.98;;;5.03;;
78744;SDS011;68064;53.100;8.824;2023-05-13T05:51:12;10.40;;;4.97;;
78744;SDS011;68064;53.100;8.824;2023-05-13T05:52:14;12.60;;;4.03;;
78744;SDS011;68064;53.100;8.824;2023-05-13T05:53:15;9.60;;;4.30;;
78744;SDS011;68064;53.100;8.824;2023-05-13T05:54:16;11.65;;;4.75;;
78744;SDS011;68064;53.100;8.824;2023-05-13T05:55:17;10.98;;;4.22;;
78744;SDS011;68064;53.100;8.824;2023-05-13T05:56:18;12.13;;;5.35;;
78744;SDS011;68064;53.100;8.824;2023-05-13T05:58:22;11.98;;;4.68;;
78744;SDS011;68064;53.100;8.824;2023-05-13T05:59:23;11.85;;;5.10;;
78744;SDS011;68064;53.100;8.824;2023-05-13T06:00:24;11.52;;;5.13;;
78744;SDS011;68064;53.100;8.824;2023-05-13T06:01:25;13.88;;;5.85;;
78744;SDS011;68064;53.100;8.824;2023-05-13T06:02:27;12.85;;;5.53;;
78744;SDS011;68064;53.100;8.824;2023-05-13T06:03:28;11.38;;;4.53;;
78744;SDS011;68064;53.100;8.824;2023-05-13T06:04:29;12.48;;;5.32;;
78744;SDS011;68064;53.100;8.824;2023-05-13T06:05:30;13.85;;;5.55;;
78744;SDS011;68064;53.100;8.824;2023-05-13T06:06:31;11.52;;;4.40;;
78744;SDS011;68064;53.100;8.824;2023-05-13T06:07:32;11.75;;;5.25;;
78744;SDS011;68064;53.100;8.824;2023-05-13T06:08:33;13.10;;;6.63;;
78744;SDS011;68064;53.100;8.824;2023-05-13T06:09:34;12.63;;;4.97;;
78744;SDS011;68064;53.100;8.824;2023-05-13T06:10:35;12.00;;;4.45;;
78744;SDS011;68064;53.100;8.824;2023-05-13T06:11:36;12.85;;;5.55;;
78744;SDS011;68064;53.100;8.824;2023-05-13T06:12:39;11.15;;;4.88;;
78744;SDS011;68064;53.100;8.824;2023-05-13T06:13:40;13.30;;;5.57;;
78744;SDS011;68064;53.100;8.824;2023-05-13T06:14:41;12.38;;;5.45;;
78744;SDS011;68064;53.100;8.824;2023-05-13T06:15:42;11.63;;;5.32;;
78744;SDS011;68064;53.100;8.824;2023-05-13T06:16:43;12.13;;;5.50;;
78744;SDS011;68064;53.100;8.824;2023-05-13T06:17:44;13.23;;;5.22;;
78744;SDS011;68064;53.100;8.824;2023-05-13T06:18:45;12.25;;;4.95;;
78744;SDS011;68064;53.100;8.824;2023-05-13T06:19:46;12.88;;;6.20;;
78744;SDS011;68064;53.100;8.824;2023-05-13T06:20:47;10.40;;;4.75;;
78744;SDS011;68064;53.100;8.824;2023-05-13T06:21:49;12.52;;;5.68;;
78744;SDS011;68064;53.100;8.824;2023-05-13T06:22:50;13.02;;;5.22;;
78744;SDS011;68064;53.100;8.824;2023-05-13T06:23:51;12.85;;;5.38;;
78744;SDS011;68064;53.100;8.824;2023-05-13T06:24:52;11.68;;;5.03;;
78744;SDS011;68064;53.100;8.824;2023-05-13T06:25:53;14.85;;;5.75;;
78744;SDS011;68064;53.100;8.824;2023-05-13T06:26:54;14.73;;;5.55;;
78744;SDS011;68064;53.100;8.824;2023-05-13T06:27:56;12.45;;;4.82;;
78744;SDS011;68064;53.100;8.824;2023-05-13T06:28:58;12.30;;;4.78;;
78744;SDS011;68064;53.100;8.824;2023-05-13T06:29:59;12.77;;;5.40;;
78744;SDS011;68064;53.100;8.824;2023-05-13T06:32:00;12.25;;;4.95;;
78744;SDS011;68064;53.100;8.824;2023-05-13T06:33:02;12.38;;;4.45;;
78744;SDS011;68064;53.100;8.824;2023-05-13T06:35:04;10.77;;;5.10;;
78744;SDS011;68064;53.100;8.824;2023-05-13T06:36:06;13.05;;;5.38;;
78744;SDS011;68064;53.100;8.824;2023-05-13T06:37:07;11.40;;;4.55;;
78744;SDS011;68064;53.100;8.824;2023-05-13T06:38:08;9.27;;;3.58;;
78744;SDS011;68064;53.100;8.824;2023-05-13T06:39:10;10.55;;;4.40;;
78744;SDS011;68064;53.100;8.824;2023-05-13T06:40:12;12.20;;;3.70;;
78744;SDS011;68064;53.100;8.824;2023-05-13T06:41:13;10.57;;;3.95;;